createdAt,value
2022-09-18T00:01:14.101Z,8.30
2022-09-18T00:03:43.628Z,8.18
2022-09-18T00:06:14.391Z,7.72
2022-09-18T00:08:43.679Z,8.50
2022-09-18T00:11:14.928Z,7.55
2022-09-18T00:13:43.474Z,7.13
2022-09-18T00:16:14.111Z,7.20
2022-09-18T00:18:42.526Z,6.30
2022-09-18T00:21:12.071Z,6.68
2022-09-18T00:23:40.537Z,7.43
2022-09-18T00:26:10.770Z,6.80
2022-09-18T00:28:40.405Z,6.90
2022-09-18T00:31:10.815Z,6.95
2022-09-18T00:33:39.923Z,6.97
2022-09-18T00:36:11.170Z,7.55
2022-09-18T00:38:39.954Z,8.13
2022-09-18T00:41:09.565Z,7.82
2022-09-18T00:43:38.374Z,8.55
2022-09-18T00:46:10.542Z,7.65
2022-09-18T00:48:46.432Z,8.63
2022-09-18T00:51:17.839Z,8.57
2022-09-18T00:53:51.622Z,8.75
2022-09-18T00:56:19.666Z,9.90
2022-09-18T00:58:47.610Z,10.35
2022-09-18T01:04:17.204Z,11.65
2022-09-18T01:06:51.046Z,12.35
2022-09-18T01:09:29.453Z,13.52
2022-09-18T01:12:07.324Z,15.77
2022-09-18T01:14:42.509Z,16.65
2022-09-18T01:17:20.561Z,17.80
2022-09-18T01:20:17.170Z,18.63
2022-09-18T01:22:55.910Z,16.95
2022-09-18T01:25:34.980Z,17.67
2022-09-18T01:28:17.594Z,17.83
2022-09-18T01:30:49.692Z,17.50
2022-09-18T01:33:21.893Z,17.58
2022-09-18T01:35:54.813Z,15.68
2022-09-18T01:38:28.514Z,16.13
2022-09-18T01:41:01.227Z,15.93
2022-09-18T01:43:32.852Z,15.30
2022-09-18T01:46:04.355Z,16.10
2022-09-18T01:48:36.644Z,13.45
2022-09-18T01:51:10.725Z,13.77
2022-09-18T01:53:42.810Z,13.32
2022-09-18T01:56:17.128Z,13.82
2022-09-18T01:58:49.381Z,13.30
2022-09-18T02:01:20.442Z,13.85
2022-09-18T02:03:52.987Z,13.13
2022-09-18T02:06:27.272Z,11.57
2022-09-18T02:08:57.415Z,12.50
2022-09-18T02:11:25.480Z,12.30
2022-09-18T02:13:59.045Z,11.65
2022-09-18T02:16:32.566Z,12.25
2022-09-18T02:19:07.248Z,10.18
2022-09-18T02:21:37.768Z,12.23
2022-09-18T02:24:10.153Z,11.95
2022-09-18T02:26:41.593Z,11.98
2022-09-18T02:29:14.559Z,11.38
2022-09-18T02:31:42.603Z,12.90
2022-09-18T02:34:12.365Z,11.80
2022-09-18T02:37:02.140Z,11.23
2022-09-18T02:39:48.960Z,11.65
2022-09-18T02:42:30.977Z,11.75
2022-09-18T02:45:08.848Z,11.38
2022-09-18T02:47:49.650Z,9.95
2022-09-18T02:50:25.041Z,11.27
2022-09-18T02:52:59.634Z,12.32
2022-09-18T02:55:31.354Z,12.10
2022-09-18T02:58:05.194Z,14.48
2022-09-18T03:00:36.286Z,12.85
2022-09-18T03:03:04.121Z,13.38
2022-09-18T03:05:31.841Z,12.10
2022-09-18T03:08:00.520Z,13.20
2022-09-18T03:10:28.425Z,12.65
2022-09-18T03:12:56.133Z,13.18
2022-09-18T03:15:24.130Z,11.43
2022-09-18T03:17:53.177Z,13.05
2022-09-18T03:20:21.036Z,12.40
2022-09-18T03:22:49.036Z,10.85
2022-09-18T03:25:16.865Z,13.07
2022-09-18T03:27:44.593Z,12.80
2022-09-18T03:30:13.181Z,11.32
2022-09-18T03:32:40.995Z,11.48
2022-09-18T03:35:10.996Z,10.73
2022-09-18T03:37:39.108Z,10.88
2022-09-18T03:40:08.340Z,10.00
2022-09-18T03:42:36.229Z,9.45
2022-09-18T03:45:05.153Z,9.73
2022-09-18T03:47:36.312Z,10.93
2022-09-18T03:50:06.205Z,9.32
2022-09-18T03:52:36.137Z,9.05
2022-09-18T03:55:03.922Z,9.18
2022-09-18T03:57:32.040Z,9.00
2022-09-18T04:00:00.116Z,7.53
2022-09-18T04:02:27.993Z,7.78
2022-09-18T04:04:55.908Z,7.00
2022-09-18T04:07:23.951Z,7.43
2022-09-18T04:09:52.985Z,6.80
2022-09-18T04:12:20.776Z,6.78
2022-09-18T04:14:48.784Z,5.88
2022-09-18T04:17:16.573Z,6.55
2022-09-18T04:19:44.284Z,5.20
2022-09-18T04:22:12.501Z,6.78
2022-09-18T04:24:40.257Z,5.53
2022-09-18T04:27:09.461Z,5.60
2022-09-18T04:29:37.524Z,6.05
2022-09-18T04:32:06.327Z,5.00
2022-09-18T04:34:34.152Z,5.93
2022-09-18T04:37:04.830Z,6.72
2022-09-18T04:39:35.726Z,6.25
2022-09-18T04:42:04.018Z,5.38
2022-09-18T04:44:33.129Z,5.80
2022-09-18T04:47:00.908Z,5.65
2022-09-18T04:49:29.024Z,4.90
2022-09-18T04:51:56.742Z,5.97
2022-09-18T04:54:24.637Z,6.20
2022-09-18T04:56:52.635Z,6.30
2022-09-18T04:59:20.341Z,6.80
2022-09-18T05:01:49.715Z,6.47
2022-09-18T05:04:17.869Z,5.82
2022-09-18T05:06:45.705Z,6.47
2022-09-18T05:09:13.457Z,7.55
2022-09-18T05:11:41.468Z,8.45
2022-09-18T05:14:09.258Z,7.68
2022-09-18T05:16:37.163Z,7.30
2022-09-18T05:19:06.850Z,7.90
2022-09-18T05:21:34.838Z,8.25
2022-09-18T05:24:03.007Z,7.32
2022-09-18T05:26:31.355Z,6.97
2022-09-18T05:28:59.092Z,7.07
2022-09-18T05:31:26.996Z,6.47
2022-09-18T05:33:54.985Z,6.75
2022-09-18T05:36:24.029Z,6.65
2022-09-18T05:38:51.775Z,7.30
2022-09-18T05:41:19.913Z,6.85
2022-09-18T05:43:47.688Z,6.28
2022-09-18T05:46:16.010Z,5.75
2022-09-18T05:48:44.949Z,5.90
2022-09-18T05:51:12.688Z,5.18
2022-09-18T05:53:42.676Z,5.53
2022-09-18T05:56:10.721Z,5.90
2022-09-18T05:58:38.652Z,5.40
2022-09-18T06:01:06.510Z,4.80
2022-09-18T06:03:34.500Z,5.13
2022-09-18T06:06:02.192Z,4.35
2022-09-18T06:08:30.040Z,5.10
2022-09-18T06:11:02.921Z,4.72
2022-09-18T06:13:30.849Z,4.88
2022-09-18T06:15:58.695Z,4.60
2022-09-18T06:18:27.065Z,4.35
2022-09-18T06:20:56.277Z,4.72
2022-09-18T06:23:24.356Z,4.28
2022-09-18T06:25:58.628Z,4.00
2022-09-18T06:28:28.241Z,4.35
2022-09-18T06:30:56.346Z,4.45
2022-09-18T06:33:24.170Z,4.38
2022-09-18T06:35:51.951Z,4.40
2022-09-18T06:38:19.961Z,4.18
2022-09-18T06:40:51.771Z,3.85
2022-09-18T06:43:20.449Z,3.97
2022-09-18T06:45:53.419Z,3.28
2022-09-18T06:48:21.354Z,7.20
2022-09-18T06:50:54.473Z,57.08
2022-09-18T06:53:22.956Z,5.28
2022-09-18T06:55:51.675Z,4.80
2022-09-18T06:58:20.701Z,5.35
2022-09-18T07:00:48.543Z,2.97
2022-09-18T07:03:17.937Z,4.93
2022-09-18T07:05:46.477Z,13.63
2022-09-18T07:08:14.507Z,4.20
2022-09-18T07:10:42.597Z,5.40
2022-09-18T07:13:10.637Z,3.15
2022-09-18T07:15:38.592Z,2.72
2022-09-18T07:18:08.058Z,2.88
2022-09-18T07:20:37.296Z,2.35
2022-09-18T07:23:05.013Z,3.08
2022-09-18T07:25:34.414Z,2.58
2022-09-18T07:28:07.821Z,1.98
2022-09-18T07:30:36.085Z,1.85
2022-09-18T07:33:05.004Z,1.98
2022-09-18T07:35:33.632Z,1.95
2022-09-18T07:38:05.853Z,2.33
2022-09-18T07:40:34.710Z,1.92
2022-09-18T07:43:04.990Z,2.08
2022-09-18T07:45:33.050Z,1.65
2022-09-18T07:48:02.576Z,1.30
2022-09-18T07:50:30.626Z,2.15
2022-09-18T07:53:00.095Z,1.92
2022-09-18T07:55:29.440Z,1.80
2022-09-18T07:57:59.563Z,1.75
2022-09-18T08:00:29.209Z,2.50
2022-09-18T08:03:02.187Z,2.13
2022-09-18T08:05:30.278Z,1.60
2022-09-18T08:08:03.161Z,1.70
2022-09-18T08:10:34.377Z,2.80
2022-09-18T08:13:02.626Z,1.70
2022-09-18T08:15:30.804Z,1.58
2022-09-18T08:17:59.084Z,1.38
2022-09-18T08:20:27.004Z,1.80
2022-09-18T08:22:54.683Z,1.95
2022-09-18T08:25:23.144Z,1.80
2022-09-18T08:27:52.544Z,2.13
2022-09-18T08:30:20.419Z,1.75
2022-09-18T08:32:48.501Z,1.52
2022-09-18T08:35:16.427Z,1.45
2022-09-18T08:37:48.676Z,1.30
2022-09-18T08:40:18.947Z,1.67
2022-09-18T08:43:02.701Z,1.67
2022-09-18T08:45:41.997Z,1.25
2022-09-18T08:48:14.724Z,1.92
2022-09-18T08:50:49.429Z,1.17
2022-09-18T08:53:21.430Z,1.52
2022-09-18T08:55:51.939Z,1.55
2022-09-18T08:58:26.737Z,1.50
2022-09-18T09:01:00.838Z,1.23
2022-09-18T09:03:37.645Z,1.20
2022-09-18T09:06:15.000Z,1.05
2022-09-18T09:09:03.770Z,2.00
2022-09-18T09:11:40.293Z,1.30
2022-09-18T09:14:52.782Z,1.45
2022-09-18T09:17:38.724Z,1.80
2022-09-18T09:20:19.007Z,1.60
2022-09-18T09:22:55.228Z,1.50
2022-09-18T09:25:27.053Z,1.10
2022-09-18T09:28:01.253Z,1.15
2022-09-18T09:30:34.497Z,1.10
2022-09-18T09:33:12.881Z,0.82
2022-09-18T09:35:45.805Z,1.10
2022-09-18T09:38:30.600Z,1.25
2022-09-18T09:41:02.856Z,0.70
2022-09-18T09:43:36.420Z,0.80
2022-09-18T09:46:18.093Z,0.90
2022-09-18T09:48:56.124Z,0.77
2022-09-18T09:51:32.008Z,0.82
2022-09-18T09:54:02.044Z,0.82
2022-09-18T09:56:38.146Z,0.80
2022-09-18T09:59:18.205Z,1.00
2022-09-18T10:01:54.307Z,0.98
2022-09-18T10:04:34.978Z,0.98
2022-09-18T10:07:13.685Z,1.17
2022-09-18T10:09:49.134Z,1.10
2022-09-18T10:12:27.705Z,2.53
2022-09-18T10:15:04.073Z,2.35
2022-09-18T10:17:37.746Z,1.48
2022-09-18T10:20:08.946Z,1.40
2022-09-18T10:22:37.461Z,1.65
2022-09-18T10:25:14.029Z,1.00
2022-09-18T10:27:43.329Z,1.50
2022-09-18T10:30:13.738Z,1.20
2022-09-18T10:32:42.965Z,1.00
2022-09-18T10:35:45.287Z,1.40
2022-09-18T10:38:29.941Z,1.10
2022-09-18T10:41:12.090Z,1.50
2022-09-18T10:43:53.050Z,1.42
2022-09-18T10:46:25.389Z,1.60
2022-09-18T10:48:54.790Z,1.33
2022-09-18T10:51:25.695Z,1.45
2022-09-18T10:54:16.793Z,1.70
2022-09-18T10:56:45.109Z,1.50
2022-09-18T10:59:34.453Z,1.30
2022-09-18T11:02:05.561Z,1.50
2022-09-18T11:04:35.218Z,0.50
2022-09-18T11:07:07.387Z,0.75
2022-09-18T11:09:39.481Z,0.70
2022-09-18T11:12:15.596Z,1.00
2022-09-18T11:14:46.996Z,0.75
2022-09-18T11:17:24.436Z,0.80
2022-09-18T11:19:56.026Z,1.25
2022-09-18T11:22:34.870Z,0.88
2022-09-18T11:25:18.987Z,0.88
2022-09-18T11:27:49.072Z,0.70
2022-09-18T11:30:22.439Z,0.90
2022-09-18T11:32:54.450Z,1.00
2022-09-18T11:35:23.813Z,2.20
2022-09-18T11:37:54.156Z,3.15
2022-09-18T11:40:25.167Z,1.25
2022-09-18T11:42:55.363Z,0.90
2022-09-18T11:45:52.026Z,0.57
2022-09-18T11:48:31.007Z,0.65
2022-09-18T11:51:03.589Z,1.10
2022-09-18T11:53:39.178Z,1.20
2022-09-18T11:56:12.822Z,0.80
2022-09-18T11:58:46.206Z,1.10
2022-09-18T12:01:22.905Z,1.20
2022-09-18T12:03:57.606Z,1.83
2022-09-18T12:06:35.617Z,1.30
2022-09-18T12:09:17.864Z,1.10
2022-09-18T12:11:51.852Z,1.30
2022-09-18T12:14:23.732Z,1.50
2022-09-18T12:17:00.815Z,1.60
2022-09-18T12:19:35.397Z,1.15
2022-09-18T12:22:12.159Z,1.30
2022-09-18T12:24:40.292Z,1.23
2022-09-18T12:27:27.495Z,1.40
2022-09-18T12:30:04.569Z,1.20
2022-09-18T12:32:56.183Z,1.42
2022-09-18T12:35:34.992Z,1.27
2022-09-18T12:38:18.160Z,1.10
2022-09-18T12:41:06.112Z,1.20
2022-09-18T12:43:59.473Z,1.70
2022-09-18T12:46:41.477Z,1.20
2022-09-18T12:52:08.040Z,1.58
2022-09-18T12:55:05.185Z,1.63
2022-09-18T12:57:47.425Z,1.50
2022-09-18T13:00:18.422Z,1.13
2022-09-18T13:02:54.578Z,1.40
2022-09-18T13:05:29.087Z,1.30
2022-09-18T13:08:04.128Z,1.20
2022-09-18T13:10:39.662Z,1.20
2022-09-18T13:13:14.864Z,1.20
2022-09-18T13:15:47.372Z,1.40
2022-09-18T13:18:25.200Z,1.70
2022-09-18T13:20:54.792Z,1.33
2022-09-18T13:23:27.865Z,1.70
2022-09-18T13:25:58.920Z,1.70
2022-09-18T13:28:29.081Z,1.70
2022-09-18T13:31:27.697Z,2.78
2022-09-18T13:33:57.759Z,1.70
2022-09-18T13:36:28.958Z,1.70
2022-09-18T13:39:00.066Z,1.13
2022-09-18T13:41:30.608Z,1.35
2022-09-18T13:44:00.572Z,1.10
2022-09-18T13:46:32.335Z,1.10
2022-09-18T13:49:04.404Z,2.28
2022-09-18T13:51:36.283Z,1.00
2022-09-18T13:54:19.923Z,1.08
2022-09-18T13:57:24.415Z,1.30
2022-09-18T13:59:56.139Z,1.38
2022-09-18T14:02:28.100Z,1.10
2022-09-18T14:05:06.222Z,1.90
2022-09-18T14:07:51.770Z,2.55
2022-09-18T14:10:26.779Z,2.03
2022-09-18T14:13:17.597Z,1.85
2022-09-18T14:15:55.136Z,2.00
2022-09-18T14:18:28.238Z,2.10
2022-09-18T14:21:00.021Z,1.73
2022-09-18T14:24:03.433Z,1.98
2022-09-18T14:27:00.740Z,2.60
2022-09-18T14:29:34.534Z,3.00
2022-09-18T14:32:04.144Z,4.18
2022-09-18T14:34:38.810Z,3.80
2022-09-18T14:37:28.316Z,4.00
2022-09-18T14:39:57.764Z,4.40
2022-09-18T14:42:32.872Z,5.22
2022-09-18T14:45:21.291Z,4.88
2022-09-18T14:47:50.955Z,5.22
2022-09-18T14:50:24.652Z,5.10
2022-09-18T14:52:53.577Z,5.00
2022-09-18T14:55:23.769Z,5.75
2022-09-18T14:57:55.076Z,5.50
2022-09-18T15:00:26.908Z,6.25
2022-09-18T15:02:58.553Z,6.40
2022-09-18T15:05:29.306Z,5.50
2022-09-18T15:08:05.015Z,5.30
2022-09-18T15:10:36.320Z,5.05
2022-09-18T15:13:07.085Z,5.22
2022-09-18T15:15:38.222Z,5.28
2022-09-18T15:18:19.186Z,4.78
2022-09-18T15:20:51.515Z,6.18
2022-09-18T15:23:21.060Z,4.95
2022-09-18T15:25:53.477Z,6.10
2022-09-18T15:28:23.487Z,5.43
2022-09-18T15:30:56.833Z,6.40
2022-09-18T15:33:27.433Z,5.93
2022-09-18T15:35:56.872Z,7.97
2022-09-18T15:38:31.880Z,7.85
2022-09-18T15:41:05.180Z,6.40
2022-09-18T15:43:43.442Z,6.38
2022-09-18T15:46:13.095Z,5.97
2022-09-18T15:48:45.389Z,5.65
2022-09-18T15:51:15.999Z,5.68
2022-09-18T15:54:02.945Z,5.60
2022-09-18T15:56:33.976Z,4.80
2022-09-18T15:59:04.783Z,5.85
2022-09-18T16:01:36.392Z,5.65
2022-09-18T16:04:18.164Z,5.75
2022-09-18T16:06:53.672Z,5.43
2022-09-18T16:09:40.920Z,5.40
2022-09-18T16:12:36.246Z,6.03
2022-09-18T16:15:17.235Z,5.50
2022-09-18T16:18:06.372Z,6.22
2022-09-18T16:20:38.797Z,5.93
2022-09-18T16:23:21.384Z,5.85
2022-09-18T16:26:04.293Z,6.60
2022-09-18T16:28:36.838Z,8.27
2022-09-18T16:31:05.258Z,7.32
2022-09-18T16:33:34.960Z,5.30
2022-09-18T16:36:08.923Z,5.68
2022-09-18T16:38:36.923Z,5.53
2022-09-18T16:41:05.025Z,5.07
2022-09-18T16:43:32.783Z,5.18
2022-09-18T16:46:00.775Z,33.00
2022-09-18T16:48:29.315Z,6.97
2022-09-18T16:50:57.321Z,5.95
2022-09-18T16:53:26.552Z,4.80
2022-09-18T16:55:57.384Z,5.80
2022-09-18T16:58:27.937Z,7.50
2022-09-18T17:00:56.005Z,5.03
2022-09-18T17:03:23.981Z,5.38
2022-09-18T17:05:51.874Z,5.07
2022-09-18T17:08:19.967Z,5.15
2022-09-18T17:10:49.339Z,18.33
2022-09-18T17:13:17.260Z,9.90
2022-09-18T17:15:45.808Z,5.13
2022-09-18T17:18:13.644Z,6.78
2022-09-18T17:20:41.794Z,5.53
2022-09-18T17:23:09.824Z,6.60
2022-09-18T17:25:37.838Z,5.38
2022-09-18T17:28:07.322Z,4.72
2022-09-18T17:30:35.408Z,4.60
2022-09-18T17:33:03.140Z,4.70
2022-09-18T17:35:30.937Z,5.30
2022-09-18T17:37:58.965Z,6.32
2022-09-18T17:40:26.750Z,5.80
2022-09-18T17:42:54.829Z,5.55
2022-09-18T17:45:24.221Z,5.07
2022-09-18T17:47:53.046Z,4.38
2022-09-18T17:50:22.113Z,5.93
2022-09-18T17:52:50.092Z,6.07
2022-09-18T17:55:18.036Z,5.43
2022-09-18T17:57:45.747Z,4.40
2022-09-18T18:00:15.675Z,4.38
2022-09-18T18:02:44.776Z,3.83
2022-09-18T18:05:12.715Z,4.40
2022-09-18T18:07:40.677Z,4.35
2022-09-18T18:10:09.255Z,4.55
2022-09-18T18:12:37.451Z,5.18
2022-09-18T18:15:06.473Z,5.15
2022-09-18T18:17:34.670Z,5.57
2022-09-18T18:20:05.023Z,4.75
2022-09-18T18:22:33.074Z,5.03
2022-09-18T18:25:01.401Z,4.68
2022-09-18T18:27:29.721Z,4.50
2022-09-18T18:29:58.984Z,4.55
2022-09-18T18:32:26.926Z,5.28
2022-09-18T18:34:55.516Z,5.53
2022-09-18T18:37:24.944Z,5.47
2022-09-18T18:39:52.770Z,5.72
2022-09-18T18:42:20.789Z,5.88
2022-09-18T18:44:48.841Z,6.18
2022-09-18T18:47:20.404Z,6.20
2022-09-18T18:49:48.592Z,6.22
2022-09-18T18:52:16.749Z,6.75
2022-09-18T18:54:45.836Z,6.40
2022-09-18T18:57:13.873Z,5.93
2022-09-18T18:59:43.482Z,4.68
2022-09-18T19:02:11.770Z,5.10
2022-09-18T19:04:41.589Z,5.35
2022-09-18T19:07:10.721Z,4.43
2022-09-18T19:09:38.702Z,4.80
2022-09-18T19:12:08.076Z,5.25
2022-09-18T19:14:37.920Z,6.43
2022-09-18T19:17:06.013Z,5.22
2022-09-18T19:19:34.380Z,6.22
2022-09-18T19:22:02.276Z,6.93
2022-09-18T19:24:30.906Z,5.40
2022-09-18T19:26:59.387Z,5.65
2022-09-18T19:29:30.511Z,6.05
2022-09-18T19:32:00.233Z,6.43
2022-09-18T19:34:28.652Z,5.80
2022-09-18T19:36:56.960Z,6.03
2022-09-18T19:39:25.037Z,6.47
2022-09-18T19:41:59.189Z,5.22
2022-09-18T19:44:34.613Z,5.63
2022-09-18T19:47:07.331Z,5.05
2022-09-18T19:49:38.321Z,5.15
2022-09-18T19:52:17.905Z,5.18
2022-09-18T19:54:45.976Z,4.82
2022-09-18T19:57:14.449Z,3.90
2022-09-18T19:59:44.062Z,3.83
2022-09-18T20:02:13.623Z,3.70
2022-09-18T20:04:41.744Z,3.83
2022-09-18T20:07:09.637Z,3.80
2022-09-18T20:09:37.685Z,3.97
2022-09-18T20:12:06.023Z,3.83
2022-09-18T20:14:33.948Z,3.65
2022-09-18T20:17:03.602Z,3.60
2022-09-18T20:19:31.669Z,3.65
2022-09-18T20:22:02.120Z,3.20
2022-09-18T20:24:30.616Z,3.30
2022-09-18T20:26:59.138Z,3.50
2022-09-18T20:29:28.916Z,4.03
2022-09-18T20:31:58.128Z,4.28
2022-09-18T20:34:27.648Z,4.30
2022-09-18T20:36:55.371Z,3.50
2022-09-18T20:39:23.453Z,3.72
2022-09-18T20:41:51.487Z,4.00
2022-09-18T20:44:20.877Z,3.65
2022-09-18T20:46:49.155Z,3.28
2022-09-18T20:49:18.077Z,3.22
2022-09-18T20:51:47.329Z,3.88
2022-09-18T20:54:15.946Z,5.38
2022-09-18T20:56:44.293Z,4.43
2022-09-18T20:59:15.936Z,4.18
2022-09-18T21:01:44.759Z,3.78
2022-09-18T21:04:16.976Z,4.38
2022-09-18T21:06:48.636Z,3.75
2022-09-18T21:09:16.753Z,3.97
2022-09-18T21:11:45.705Z,4.25
2022-09-18T21:14:15.485Z,3.83
2022-09-18T21:16:43.914Z,2.85
2022-09-18T21:19:13.075Z,4.35
2022-09-18T21:21:41.500Z,3.15
2022-09-18T21:24:11.317Z,3.25
2022-09-18T21:26:41.511Z,3.05
2022-09-18T21:29:13.636Z,2.97
2022-09-18T21:31:43.278Z,2.72
2022-09-18T21:34:13.843Z,3.55
2022-09-18T21:36:43.915Z,3.60
2022-09-18T21:39:14.708Z,2.20
2022-09-18T21:41:46.233Z,2.80
2022-09-18T21:44:16.118Z,2.72
2022-09-18T21:46:45.403Z,3.00
2022-09-18T21:49:14.975Z,2.50
2022-09-18T21:51:43.484Z,3.03
2022-09-18T21:54:15.976Z,2.85
2022-09-18T21:56:44.559Z,3.38
2022-09-18T21:59:12.865Z,3.28
2022-09-18T22:01:41.752Z,2.45
2022-09-18T22:04:10.356Z,2.88
2022-09-18T22:06:40.783Z,2.92
2022-09-18T22:09:10.273Z,2.85
2022-09-18T22:11:39.884Z,2.75
2022-09-18T22:14:10.223Z,2.38
2022-09-18T22:16:39.294Z,2.90
2022-09-18T22:19:09.118Z,2.80
2022-09-18T22:21:39.093Z,2.45
2022-09-18T22:24:09.397Z,2.63
2022-09-18T22:26:42.177Z,2.83
2022-09-18T22:29:15.580Z,3.05
2022-09-18T22:31:46.343Z,3.08
2022-09-18T22:34:14.612Z,2.95
2022-09-18T22:36:42.753Z,2.50
2022-09-18T22:39:12.240Z,2.33
2022-09-18T22:41:41.746Z,2.42
2022-09-18T22:44:09.821Z,3.03
2022-09-18T22:46:39.209Z,2.20
2022-09-18T22:49:08.701Z,2.63
2022-09-18T22:51:36.788Z,2.20
2022-09-18T22:54:07.423Z,3.13
2022-09-18T22:56:38.802Z,2.25
2022-09-18T22:59:09.340Z,2.88
2022-09-18T23:01:41.571Z,2.55
2022-09-18T23:04:10.396Z,2.03
2022-09-18T23:06:38.160Z,2.00
2022-09-18T23:09:07.420Z,2.40
2022-09-18T23:11:36.077Z,2.88
2022-09-18T23:14:05.868Z,2.30
2022-09-18T23:16:37.358Z,2.38
2022-09-18T23:19:09.625Z,2.67
2022-09-18T23:21:39.411Z,2.40
2022-09-18T23:24:09.504Z,1.92
2022-09-18T23:26:39.853Z,1.90
2022-09-18T23:29:09.820Z,2.25
2022-09-18T23:31:41.457Z,2.30
2022-09-18T23:34:12.885Z,2.87
2022-09-18T23:36:43.284Z,2.20
2022-09-18T23:39:13.849Z,1.80
2022-09-18T23:41:42.570Z,2.22
2022-09-18T23:44:12.885Z,1.98
2022-09-18T23:46:42.767Z,1.70
2022-09-18T23:49:12.192Z,1.67
2022-09-18T23:51:42.063Z,1.75
2022-09-18T23:54:16.501Z,1.50
2022-09-18T23:56:45.048Z,1.92
2022-09-18T23:59:14.273Z,1.50
